Weather at Albuquerque International Sunport

Public forecast

Using degrees Fahrenheit for public forecast. Weather courtesy of forecast.io.

Current aviation weather report (METAR) for Albuquerque International Sunport

Report is more than 6 hours old.

2022/11/14 14:52 (retrieved 2 years ago)

KABQ 141452Z 00000KT 10SM FEW025 BKN037 BKN050 02/M02 A3004 RMK AO2 SLP153 MTNS OBSC NE AND SE SHSN DSNT NE T00221022 51031

Aviation forecast (TAF) for Albuquerque International Sunport

Forecast is more than 12 hours old.

2023/02/22 20:24 Ammendment (retrieved 1 year ago)

TAF AMD KABQ 222023Z 2220/2318 22032G58KT 3SM BLDU VCSH SCT015 BKN040 FM222100 26035G58KT 3SM BLDU VCSH SCT015 BKN040 TEMPO 2221/2222 1/2SM SN BLDU BKN015 FM230000 27025G37KT P6SM BKN050 FM230600 23011G18KT P6SM BKN070 FM231000 18012KT P6SM BKN040